sensor_id;sensor_type;location;lat;lon;timestamp;P1;durP1;ratioP1;P2;durP2;ratioP2
70800;SDS011;59616;52.170;5.386;2022-12-07T00:01:35;10.60;;;3.13;;
70800;SDS011;59616;52.170;5.386;2022-12-07T00:04:05;8.07;;;2.85;;
70800;SDS011;59616;52.170;5.386;2022-12-07T00:08:59;10.40;;;2.92;;
70800;SDS011;59616;52.170;5.386;2022-12-07T00:11:27;8.77;;;3.00;;
70800;SDS011;59616;52.170;5.386;2022-12-07T00:13:55;9.93;;;2.90;;
70800;SDS011;59616;52.170;5.386;2022-12-07T00:16:23;9.13;;;2.83;;
70800;SDS011;59616;52.170;5.386;2022-12-07T00:18:50;9.15;;;3.00;;
70800;SDS011;59616;52.170;5.386;2022-12-07T00:21:19;10.82;;;3.10;;
70800;SDS011;59616;52.170;5.386;2022-12-07T00:23:47;7.70;;;2.90;;
70800;SDS011;59616;52.170;5.386;2022-12-07T00:26:16;8.73;;;2.70;;
70800;SDS011;59616;52.170;5.386;2022-12-07T00:28:47;10.43;;;3.03;;
70800;SDS011;59616;52.170;5.386;2022-12-07T00:31:16;11.65;;;3.08;;
70800;SDS011;59616;52.170;5.386;2022-12-07T00:33:44;8.93;;;2.90;;
70800;SDS011;59616;52.170;5.386;2022-12-07T00:36:12;7.60;;;2.28;;
70800;SDS011;59616;52.170;5.386;2022-12-07T00:38:41;7.40;;;2.38;;
70800;SDS011;59616;52.170;5.386;2022-12-07T00:41:18;8.52;;;2.90;;
70800;SDS011;59616;52.170;5.386;2022-12-07T00:43:46;10.30;;;2.83;;
70800;SDS011;59616;52.170;5.386;2022-12-07T00:46:14;9.45;;;3.03;;
70800;SDS011;59616;52.170;5.386;2022-12-07T00:48:41;7.10;;;2.78;;
70800;SDS011;59616;52.170;5.386;2022-12-07T00:51:09;10.35;;;2.45;;
70800;SDS011;59616;52.170;5.386;2022-12-07T00:53:37;8.30;;;2.42;;
70800;SDS011;59616;52.170;5.386;2022-12-07T00:56:08;10.23;;;2.47;;
70800;SDS011;59616;52.170;5.386;2022-12-07T00:58:36;5.90;;;2.20;;
70800;SDS011;59616;52.170;5.386;2022-12-07T01:01:03;8.80;;;2.38;;
70800;SDS011;59616;52.170;5.386;2022-12-07T01:03:31;9.38;;;2.78;;
70800;SDS011;59616;52.170;5.386;2022-12-07T01:05:58;9.48;;;2.33;;
70800;SDS011;59616;52.170;5.386;2022-12-07T01:08:26;9.02;;;2.35;;
70800;SDS011;59616;52.170;5.386;2022-12-07T01:10:57;7.25;;;2.13;;
70800;SDS011;59616;52.170;5.386;2022-12-07T01:13:25;10.48;;;2.47;;
70800;SDS011;59616;52.170;5.386;2022-12-07T01:15:55;6.80;;;2.50;;
70800;SDS011;59616;52.170;5.386;2022-12-07T01:18:23;10.57;;;2.40;;
70800;SDS011;59616;52.170;5.386;2022-12-07T01:23:26;9.93;;;2.92;;
70800;SDS011;59616;52.170;5.386;2022-12-07T01:25:54;7.13;;;2.70;;
70800;SDS011;59616;52.170;5.386;2022-12-07T01:28:22;11.88;;;2.58;;
70800;SDS011;59616;52.170;5.386;2022-12-07T01:30:56;10.60;;;2.08;;
70800;SDS011;59616;52.170;5.386;2022-12-07T01:33:23;9.63;;;2.08;;
70800;SDS011;59616;52.170;5.386;2022-12-07T01:35:51;8.25;;;1.83;;
70800;SDS011;59616;52.170;5.386;2022-12-07T01:38:18;9.73;;;2.20;;
70800;SDS011;59616;52.170;5.386;2022-12-07T01:40:45;5.65;;;1.70;;
70800;SDS011;59616;52.170;5.386;2022-12-07T01:43:16;9.55;;;2.00;;
70800;SDS011;59616;52.170;5.386;2022-12-07T01:45:44;6.43;;;1.83;;
70800;SDS011;59616;52.170;5.386;2022-12-07T01:48:13;10.57;;;2.20;;
70800;SDS011;59616;52.170;5.386;2022-12-07T01:50:41;10.15;;;2.45;;
70800;SDS011;59616;52.170;5.386;2022-12-07T01:53:09;11.02;;;2.30;;
70800;SDS011;59616;52.170;5.386;2022-12-07T01:55:38;9.18;;;2.47;;
70800;SDS011;59616;52.170;5.386;2022-12-07T01:58:06;10.95;;;2.83;;
70800;SDS011;59616;52.170;5.386;2022-12-07T02:00:33;7.20;;;2.30;;
70800;SDS011;59616;52.170;5.386;2022-12-07T02:03:08;8.18;;;2.13;;
70800;SDS011;59616;52.170;5.386;2022-12-07T02:05:37;11.52;;;2.70;;
70800;SDS011;59616;52.170;5.386;2022-12-07T02:08:05;6.53;;;2.35;;
70800;SDS011;59616;52.170;5.386;2022-12-07T02:10:32;8.05;;;2.60;;
70800;SDS011;59616;52.170;5.386;2022-12-07T02:13:08;6.78;;;2.10;;
70800;SDS011;59616;52.170;5.386;2022-12-07T02:27:46;7.55;;;2.00;;
70800;SDS011;59616;52.170;5.386;2022-12-07T02:30:20;7.53;;;1.98;;
70800;SDS011;59616;52.170;5.386;2022-12-07T02:35:19;5.90;;;1.73;;
70800;SDS011;59616;52.170;5.386;2022-12-07T02:38:03;9.45;;;2.00;;
70800;SDS011;59616;52.170;5.386;2022-12-07T02:43:04;4.90;;;1.67;;
70800;SDS011;59616;52.170;5.386;2022-12-07T02:45:34;6.15;;;1.77;;
70800;SDS011;59616;52.170;5.386;2022-12-07T02:48:01;9.52;;;2.15;;
70800;SDS011;59616;52.170;5.386;2022-12-07T02:50:29;7.93;;;1.90;;
70800;SDS011;59616;52.170;5.386;2022-12-07T02:52:56;4.95;;;1.52;;
70800;SDS011;59616;52.170;5.386;2022-12-07T02:55:27;7.13;;;1.73;;
70800;SDS011;59616;52.170;5.386;2022-12-07T02:58:00;8.35;;;2.10;;
70800;SDS011;59616;52.170;5.386;2022-12-07T03:00:34;8.55;;;1.50;;
70800;SDS011;59616;52.170;5.386;2022-12-07T03:03:09;6.30;;;1.58;;
70800;SDS011;59616;52.170;5.386;2022-12-07T03:08:38;5.07;;;1.48;;
70800;SDS011;59616;52.170;5.386;2022-12-07T03:11:04;6.53;;;1.23;;
70800;SDS011;59616;52.170;5.386;2022-12-07T03:18:58;9.65;;;1.63;;
70800;SDS011;59616;52.170;5.386;2022-12-07T03:21:27;5.72;;;1.40;;
70800;SDS011;59616;52.170;5.386;2022-12-07T03:23:56;8.52;;;1.33;;
70800;SDS011;59616;52.170;5.386;2022-12-07T03:26:29;2.80;;;1.02;;
70800;SDS011;59616;52.170;5.386;2022-12-07T03:28:58;5.55;;;1.35;;
70800;SDS011;59616;52.170;5.386;2022-12-07T03:31:29;7.25;;;1.40;;
70800;SDS011;59616;52.170;5.386;2022-12-07T03:36:27;5.40;;;1.30;;
70800;SDS011;59616;52.170;5.386;2022-12-07T03:41:30;6.65;;;2.03;;
70800;SDS011;59616;52.170;5.386;2022-12-07T03:43:58;6.88;;;1.50;;
70800;SDS011;59616;52.170;5.386;2022-12-07T03:46:34;8.07;;;1.40;;
70800;SDS011;59616;52.170;5.386;2022-12-07T03:51:42;6.72;;;1.50;;
70800;SDS011;59616;52.170;5.386;2022-12-07T03:54:11;4.35;;;1.30;;
70800;SDS011;59616;52.170;5.386;2022-12-07T03:56:40;6.03;;;1.60;;
70800;SDS011;59616;52.170;5.386;2022-12-07T03:59:09;6.53;;;1.52;;
70800;SDS011;59616;52.170;5.386;2022-12-07T04:01:36;9.40;;;1.55;;
70800;SDS011;59616;52.170;5.386;2022-12-07T04:04:04;5.63;;;1.42;;
70800;SDS011;59616;52.170;5.386;2022-12-07T04:06:31;6.95;;;1.40;;
70800;SDS011;59616;52.170;5.386;2022-12-07T04:08:58;5.75;;;1.27;;
70800;SDS011;59616;52.170;5.386;2022-12-07T04:11:25;7.05;;;1.42;;
70800;SDS011;59616;52.170;5.386;2022-12-07T04:13:52;6.05;;;1.48;;
70800;SDS011;59616;52.170;5.386;2022-12-07T04:16:38;9.57;;;1.30;;
70800;SDS011;59616;52.170;5.386;2022-12-07T04:19:10;5.05;;;1.10;;
70800;SDS011;59616;52.170;5.386;2022-12-07T04:21:37;6.63;;;1.50;;
70800;SDS011;59616;52.170;5.386;2022-12-07T04:24:04;3.97;;;1.08;;
70800;SDS011;59616;52.170;5.386;2022-12-07T04:26:31;3.72;;;1.05;;
70800;SDS011;59616;52.170;5.386;2022-12-07T04:28:59;8.38;;;1.40;;
70800;SDS011;59616;52.170;5.386;2022-12-07T04:31:32;8.10;;;1.27;;
70800;SDS011;59616;52.170;5.386;2022-12-07T04:33:59;5.90;;;1.40;;
70800;SDS011;59616;52.170;5.386;2022-12-07T04:36:27;4.75;;;1.10;;
70800;SDS011;59616;52.170;5.386;2022-12-07T04:38:54;4.18;;;1.00;;
70800;SDS011;59616;52.170;5.386;2022-12-07T04:41:22;4.13;;;0.98;;
70800;SDS011;59616;52.170;5.386;2022-12-07T04:43:56;6.85;;;1.35;;
70800;SDS011;59616;52.170;5.386;2022-12-07T04:46:24;4.35;;;1.10;;
70800;SDS011;59616;52.170;5.386;2022-12-07T04:48:52;8.85;;;1.20;;
70800;SDS011;59616;52.170;5.386;2022-12-07T04:51:21;4.55;;;1.00;;
70800;SDS011;59616;52.170;5.386;2022-12-07T04:53:49;3.67;;;1.00;;
70800;SDS011;59616;52.170;5.386;2022-12-07T04:56:16;8.98;;;1.50;;
70800;SDS011;59616;52.170;5.386;2022-12-07T04:58:44;5.78;;;1.20;;
70800;SDS011;59616;52.170;5.386;2022-12-07T05:01:12;6.10;;;0.80;;
70800;SDS011;59616;52.170;5.386;2022-12-07T05:03:39;2.42;;;0.82;;
70800;SDS011;59616;52.170;5.386;2022-12-07T05:06:07;8.05;;;1.33;;
70800;SDS011;59616;52.170;5.386;2022-12-07T05:08:39;4.70;;;0.88;;
70800;SDS011;59616;52.170;5.386;2022-12-07T05:11:06;3.50;;;1.17;;
70800;SDS011;59616;52.170;5.386;2022-12-07T05:13:33;5.65;;;0.93;;
70800;SDS011;59616;52.170;5.386;2022-12-07T05:16:00;4.63;;;0.80;;
70800;SDS011;59616;52.170;5.386;2022-12-07T05:18:28;3.35;;;0.65;;
70800;SDS011;59616;52.170;5.386;2022-12-07T05:20:55;8.43;;;0.95;;
70800;SDS011;59616;52.170;5.386;2022-12-07T05:23:22;5.15;;;0.80;;
70800;SDS011;59616;52.170;5.386;2022-12-07T05:25:49;5.10;;;0.90;;
70800;SDS011;59616;52.170;5.386;2022-12-07T05:28:16;4.50;;;0.93;;
70800;SDS011;59616;52.170;5.386;2022-12-07T05:30:44;5.38;;;1.50;;
70800;SDS011;59616;52.170;5.386;2022-12-07T05:33:11;4.72;;;1.05;;
70800;SDS011;59616;52.170;5.386;2022-12-07T05:35:38;8.38;;;1.40;;
70800;SDS011;59616;52.170;5.386;2022-12-07T05:38:06;9.05;;;1.90;;
70800;SDS011;59616;52.170;5.386;2022-12-07T05:40:33;7.75;;;1.50;;
70800;SDS011;59616;52.170;5.386;2022-12-07T05:43:00;8.05;;;1.70;;
70800;SDS011;59616;52.170;5.386;2022-12-07T05:45:30;6.78;;;1.33;;
70800;SDS011;59616;52.170;5.386;2022-12-07T05:47:57;7.00;;;1.42;;
70800;SDS011;59616;52.170;5.386;2022-12-07T05:50:24;10.38;;;1.80;;
70800;SDS011;59616;52.170;5.386;2022-12-07T05:52:59;8.27;;;1.77;;
70800;SDS011;59616;52.170;5.386;2022-12-07T05:55:26;10.75;;;2.03;;
70800;SDS011;59616;52.170;5.386;2022-12-07T05:57:53;9.80;;;2.08;;
70800;SDS011;59616;52.170;5.386;2022-12-07T06:00:39;10.05;;;2.17;;
70800;SDS011;59616;52.170;5.386;2022-12-07T06:03:06;10.65;;;1.88;;
70800;SDS011;59616;52.170;5.386;2022-12-07T06:05:33;11.98;;;2.15;;
70800;SDS011;59616;52.170;5.386;2022-12-07T06:08:00;8.02;;;1.45;;
70800;SDS011;59616;52.170;5.386;2022-12-07T06:10:31;4.38;;;1.20;;
70800;SDS011;59616;52.170;5.386;2022-12-07T06:12:58;7.65;;;1.25;;
70800;SDS011;59616;52.170;5.386;2022-12-07T06:15:25;11.82;;;1.52;;
70800;SDS011;59616;52.170;5.386;2022-12-07T06:17:53;6.93;;;1.50;;
70800;SDS011;59616;52.170;5.386;2022-12-07T06:22:46;5.07;;;0.90;;
70800;SDS011;59616;52.170;5.386;2022-12-07T06:25:13;7.05;;;1.15;;
70800;SDS011;59616;52.170;5.386;2022-12-07T06:27:41;7.22;;;1.48;;
70800;SDS011;59616;52.170;5.386;2022-12-07T06:30:08;5.72;;;1.33;;
70800;SDS011;59616;52.170;5.386;2022-12-07T06:32:36;6.95;;;1.30;;
70800;SDS011;59616;52.170;5.386;2022-12-07T06:35:03;5.28;;;1.10;;
70800;SDS011;59616;52.170;5.386;2022-12-07T06:37:30;4.95;;;0.93;;
70800;SDS011;59616;52.170;5.386;2022-12-07T06:42:25;5.38;;;1.30;;
70800;SDS011;59616;52.170;5.386;2022-12-07T06:44:52;10.82;;;1.45;;
70800;SDS011;59616;52.170;5.386;2022-12-07T06:47:19;5.65;;;1.15;;
70800;SDS011;59616;52.170;5.386;2022-12-07T06:50:06;4.65;;;1.08;;
70800;SDS011;59616;52.170;5.386;2022-12-07T06:52:34;6.95;;;1.33;;
70800;SDS011;59616;52.170;5.386;2022-12-07T06:55:01;9.32;;;1.40;;
70800;SDS011;59616;52.170;5.386;2022-12-07T06:57:28;4.78;;;1.08;;
70800;SDS011;59616;52.170;5.386;2022-12-07T06:59:55;6.45;;;1.17;;
70800;SDS011;59616;52.170;5.386;2022-12-07T07:02:23;6.03;;;1.42;;
70800;SDS011;59616;52.170;5.386;2022-12-07T07:04:50;7.68;;;1.13;;
70800;SDS011;59616;52.170;5.386;2022-12-07T07:07:17;5.70;;;1.42;;
70800;SDS011;59616;52.170;5.386;2022-12-07T07:09:44;5.18;;;1.30;;
70800;SDS011;59616;52.170;5.386;2022-12-07T07:12:11;3.08;;;1.02;;
70800;SDS011;59616;52.170;5.386;2022-12-07T07:14:39;11.48;;;1.50;;
70800;SDS011;59616;52.170;5.386;2022-12-07T07:17:06;4.93;;;1.27;;
70800;SDS011;59616;52.170;5.386;2022-12-07T07:19:33;4.43;;;1.23;;
70800;SDS011;59616;52.170;5.386;2022-12-07T07:22:01;4.68;;;1.15;;
70800;SDS011;59616;52.170;5.386;2022-12-07T07:24:28;7.05;;;1.20;;
70800;SDS011;59616;52.170;5.386;2022-12-07T07:26:55;6.18;;;1.35;;
70800;SDS011;59616;52.170;5.386;2022-12-07T07:29:23;4.25;;;1.20;;
70800;SDS011;59616;52.170;5.386;2022-12-07T07:31:50;5.90;;;1.60;;
70800;SDS011;59616;52.170;5.386;2022-12-07T07:34:17;3.92;;;1.20;;
70800;SDS011;59616;52.170;5.386;2022-12-07T07:36:45;6.57;;;1.23;;
70800;SDS011;59616;52.170;5.386;2022-12-07T07:41:39;6.88;;;1.23;;
70800;SDS011;59616;52.170;5.386;2022-12-07T07:44:11;4.82;;;1.17;;
70800;SDS011;59616;52.170;5.386;2022-12-07T07:46:39;8.00;;;1.55;;
70800;SDS011;59616;52.170;5.386;2022-12-07T07:49:06;6.45;;;1.35;;
70800;SDS011;59616;52.170;5.386;2022-12-07T07:51:33;7.60;;;1.88;;
70800;SDS011;59616;52.170;5.386;2022-12-07T07:56:27;7.53;;;1.60;;
70800;SDS011;59616;52.170;5.386;2022-12-07T07:58:55;11.02;;;2.65;;
70800;SDS011;59616;52.170;5.386;2022-12-07T08:01:22;10.60;;;2.33;;
70800;SDS011;59616;52.170;5.386;2022-12-07T08:03:49;11.48;;;2.78;;
70800;SDS011;59616;52.170;5.386;2022-12-07T08:06:16;8.57;;;2.15;;
70800;SDS011;59616;52.170;5.386;2022-12-07T08:08:44;7.07;;;1.60;;
70800;SDS011;59616;52.170;5.386;2022-12-07T08:11:11;7.85;;;1.63;;
70800;SDS011;59616;52.170;5.386;2022-12-07T08:13:38;7.00;;;1.70;;
70800;SDS011;59616;52.170;5.386;2022-12-07T08:16:06;10.95;;;1.50;;
70800;SDS011;59616;52.170;5.386;2022-12-07T08:18:35;8.77;;;1.50;;
70800;SDS011;59616;52.170;5.386;2022-12-07T08:21:03;5.07;;;1.20;;
70800;SDS011;59616;52.170;5.386;2022-12-07T08:23:31;7.82;;;1.30;;
70800;SDS011;59616;52.170;5.386;2022-12-07T08:26:08;5.30;;;1.30;;
70800;SDS011;59616;52.170;5.386;2022-12-07T08:28:36;8.75;;;1.63;;
70800;SDS011;59616;52.170;5.386;2022-12-07T08:31:05;5.82;;;1.50;;
70800;SDS011;59616;52.170;5.386;2022-12-07T08:33:33;7.45;;;1.50;;
70800;SDS011;59616;52.170;5.386;2022-12-07T08:36:05;4.45;;;1.15;;
70800;SDS011;59616;52.170;5.386;2022-12-07T08:38:36;5.25;;;0.98;;
70800;SDS011;59616;52.170;5.386;2022-12-07T08:41:04;4.28;;;1.05;;
70800;SDS011;59616;52.170;5.386;2022-12-07T08:43:31;4.68;;;1.20;;
70800;SDS011;59616;52.170;5.386;2022-12-07T08:46:18;6.05;;;1.40;;
70800;SDS011;59616;52.170;5.386;2022-12-07T08:48:51;6.35;;;0.95;;
70800;SDS011;59616;52.170;5.386;2022-12-07T08:51:19;4.97;;;1.23;;
70800;SDS011;59616;52.170;5.386;2022-12-07T08:53:48;3.67;;;1.00;;
70800;SDS011;59616;52.170;5.386;2022-12-07T08:56:16;3.75;;;1.05;;
70800;SDS011;59616;52.170;5.386;2022-12-07T08:58:43;7.20;;;1.10;;
70800;SDS011;59616;52.170;5.386;2022-12-07T09:01:11;5.57;;;1.30;;
70800;SDS011;59616;52.170;5.386;2022-12-07T09:03:38;7.05;;;1.40;;
70800;SDS011;59616;52.170;5.386;2022-12-07T09:06:06;2.20;;;0.98;;
70800;SDS011;59616;52.170;5.386;2022-12-07T09:08:35;4.95;;;1.05;;
70800;SDS011;59616;52.170;5.386;2022-12-07T09:11:03;6.43;;;1.27;;
70800;SDS011;59616;52.170;5.386;2022-12-07T09:13:30;4.85;;;1.38;;
70800;SDS011;59616;52.170;5.386;2022-12-07T09:15:57;6.38;;;1.10;;
70800;SDS011;59616;52.170;5.386;2022-12-07T09:18:25;7.50;;;1.40;;
70800;SDS011;59616;52.170;5.386;2022-12-07T09:20:52;3.72;;;1.05;;
70800;SDS011;59616;52.170;5.386;2022-12-07T09:23:19;5.45;;;1.48;;
70800;SDS011;59616;52.170;5.386;2022-12-07T09:25:47;6.55;;;1.20;;
70800;SDS011;59616;52.170;5.386;2022-12-07T09:28:14;7.07;;;1.23;;
70800;SDS011;59616;52.170;5.386;2022-12-07T09:30:47;3.47;;;1.10;;
70800;SDS011;59616;52.170;5.386;2022-12-07T09:33:35;5.90;;;1.30;;
70800;SDS011;59616;52.170;5.386;2022-12-07T09:36:02;7.18;;;1.42;;
70800;SDS011;59616;52.170;5.386;2022-12-07T09:38:30;5.88;;;1.08;;
70800;SDS011;59616;52.170;5.386;2022-12-07T09:41:03;5.07;;;1.25;;
70800;SDS011;59616;52.170;5.386;2022-12-07T09:43:30;7.93;;;1.20;;
70800;SDS011;59616;52.170;5.386;2022-12-07T09:45:58;3.60;;;1.10;;
70800;SDS011;59616;52.170;5.386;2022-12-07T09:48:32;7.75;;;1.67;;
70800;SDS011;59616;52.170;5.386;2022-12-07T09:51:02;4.20;;;1.33;;
70800;SDS011;59616;52.170;5.386;2022-12-07T09:53:33;9.05;;;1.35;;
70800;SDS011;59616;52.170;5.386;2022-12-07T09:56:01;5.75;;;1.00;;
70800;SDS011;59616;52.170;5.386;2022-12-07T09:58:28;5.25;;;0.90;;
70800;SDS011;59616;52.170;5.386;2022-12-07T10:00:58;5.70;;;0.90;;
70800;SDS011;59616;52.170;5.386;2022-12-07T10:03:26;2.88;;;1.00;;
70800;SDS011;59616;52.170;5.386;2022-12-07T10:05:54;4.60;;;1.20;;
70800;SDS011;59616;52.170;5.386;2022-12-07T10:08:22;6.32;;;1.20;;
70800;SDS011;59616;52.170;5.386;2022-12-07T10:10:53;2.65;;;0.75;;
70800;SDS011;59616;52.170;5.386;2022-12-07T10:13:23;9.18;;;1.38;;
70800;SDS011;59616;52.170;5.386;2022-12-07T10:16:01;5.57;;;0.98;;
70800;SDS011;59616;52.170;5.386;2022-12-07T10:21:19;7.03;;;0.85;;
70800;SDS011;59616;52.170;5.386;2022-12-07T10:31:41;7.15;;;1.33;;
70800;SDS011;59616;52.170;5.386;2022-12-07T10:34:20;9.40;;;1.40;;
70800;SDS011;59616;52.170;5.386;2022-12-07T10:36:50;9.30;;;1.58;;
70800;SDS011;59616;52.170;5.386;2022-12-07T10:39:18;6.00;;;1.55;;
70800;SDS011;59616;52.170;5.386;2022-12-07T10:44:21;6.97;;;1.80;;
70800;SDS011;59616;52.170;5.386;2022-12-07T10:51:55;6.68;;;1.60;;
70800;SDS011;59616;52.170;5.386;2022-12-07T10:54:30;7.63;;;1.65;;
70800;SDS011;59616;52.170;5.386;2022-12-07T10:59:47;5.80;;;1.92;;
70800;SDS011;59616;52.170;5.386;2022-12-07T11:02:23;8.43;;;1.98;;
70800;SDS011;59616;52.170;5.386;2022-12-07T11:15:19;5.13;;;1.38;;
70800;SDS011;59616;52.170;5.386;2022-12-07T11:18:09;8.95;;;1.27;;
70800;SDS011;59616;52.170;5.386;2022-12-07T11:20:46;5.47;;;1.30;;
70800;SDS011;59616;52.170;5.386;2022-12-07T11:33:42;5.95;;;1.60;;
70800;SDS011;59616;52.170;5.386;2022-12-07T11:38:42;9.98;;;1.48;;
70800;SDS011;59616;52.170;5.386;2022-12-07T11:41:10;6.40;;;1.30;;
70800;SDS011;59616;52.170;5.386;2022-12-07T11:44:02;3.05;;;1.00;;
70800;SDS011;59616;52.170;5.386;2022-12-07T11:46:54;7.15;;;1.10;;
70800;SDS011;59616;52.170;5.386;2022-12-07T11:51:53;9.60;;;1.30;;
70800;SDS011;59616;52.170;5.386;2022-12-07T11:54:23;6.32;;;1.40;;
70800;SDS011;59616;52.170;5.386;2022-12-07T11:56:53;11.18;;;1.55;;
70800;SDS011;59616;52.170;5.386;2022-12-07T11:59:23;9.98;;;1.50;;
70800;SDS011;59616;52.170;5.386;2022-12-07T12:01:55;7.45;;;1.33;;
70800;SDS011;59616;52.170;5.386;2022-12-07T12:06:56;6.22;;;1.25;;
70800;SDS011;59616;52.170;5.386;2022-12-07T12:09:34;5.70;;;1.13;;
70800;SDS011;59616;52.170;5.386;2022-12-07T12:12:13;5.18;;;1.27;;
70800;SDS011;59616;52.170;5.386;2022-12-07T12:22:52;6.88;;;1.17;;
70800;SDS011;59616;52.170;5.386;2022-12-07T12:27:48;4.45;;;0.88;;
70800;SDS011;59616;52.170;5.386;2022-12-07T12:33:02;5.13;;;0.82;;
70800;SDS011;59616;52.170;5.386;2022-12-07T12:35:35;6.15;;;0.80;;
70800;SDS011;59616;52.170;5.386;2022-12-07T12:41:02;3.47;;;0.77;;
70800;SDS011;59616;52.170;5.386;2022-12-07T12:43:42;4.93;;;1.00;;
70800;SDS011;59616;52.170;5.386;2022-12-07T12:51:51;3.75;;;0.80;;
70800;SDS011;59616;52.170;5.386;2022-12-07T13:01:50;3.45;;;0.70;;
70800;SDS011;59616;52.170;5.386;2022-12-07T13:04:21;2.17;;;0.70;;
70800;SDS011;59616;52.170;5.386;2022-12-07T13:06:50;5.03;;;0.73;;
70800;SDS011;59616;52.170;5.386;2022-12-07T13:09:18;3.63;;;0.40;;
70800;SDS011;59616;52.170;5.386;2022-12-07T13:11:47;1.77;;;0.38;;
70800;SDS011;59616;52.170;5.386;2022-12-07T13:17:08;1.77;;;0.43;;
70800;SDS011;59616;52.170;5.386;2022-12-07T13:24:58;2.13;;;0.60;;
70800;SDS011;59616;52.170;5.386;2022-12-07T13:27:29;2.58;;;0.60;;
70800;SDS011;59616;52.170;5.386;2022-12-07T13:29:57;3.72;;;0.75;;
70800;SDS011;59616;52.170;5.386;2022-12-07T13:32:26;2.75;;;0.73;;
70800;SDS011;59616;52.170;5.386;2022-12-07T13:34:53;3.63;;;0.77;;
70800;SDS011;59616;52.170;5.386;2022-12-07T13:37:24;5.05;;;0.98;;
70800;SDS011;59616;52.170;5.386;2022-12-07T13:39:54;2.53;;;0.82;;
70800;SDS011;59616;52.170;5.386;2022-12-07T13:42:24;4.68;;;1.17;;
70800;SDS011;59616;52.170;5.386;2022-12-07T13:44:52;6.38;;;1.35;;
70800;SDS011;59616;52.170;5.386;2022-12-07T13:47:28;6.00;;;1.20;;
70800;SDS011;59616;52.170;5.386;2022-12-07T13:49:58;4.00;;;1.00;;
70800;SDS011;59616;52.170;5.386;2022-12-07T13:52:27;4.43;;;1.10;;
70800;SDS011;59616;52.170;5.386;2022-12-07T13:57:22;3.90;;;0.98;;
70800;SDS011;59616;52.170;5.386;2022-12-07T13:59:49;2.38;;;0.90;;
70800;SDS011;59616;52.170;5.386;2022-12-07T14:02:21;7.38;;;1.27;;
70800;SDS011;59616;52.170;5.386;2022-12-07T14:04:49;4.65;;;1.33;;
70800;SDS011;59616;52.170;5.386;2022-12-07T14:07:19;3.40;;;1.05;;
70800;SDS011;59616;52.170;5.386;2022-12-07T14:09:57;7.88;;;1.08;;
70800;SDS011;59616;52.170;5.386;2022-12-07T14:12:26;6.53;;;1.50;;
70800;SDS011;59616;52.170;5.386;2022-12-07T14:14:53;7.70;;;1.52;;
70800;SDS011;59616;52.170;5.386;2022-12-07T14:17:21;6.03;;;1.40;;
70800;SDS011;59616;52.170;5.386;2022-12-07T14:19:50;5.65;;;1.08;;
70800;SDS011;59616;52.170;5.386;2022-12-07T14:22:37;5.20;;;1.40;;
70800;SDS011;59616;52.170;5.386;2022-12-07T14:27:32;2.88;;;1.20;;
70800;SDS011;59616;52.170;5.386;2022-12-07T14:30:01;7.57;;;1.30;;
70800;SDS011;59616;52.170;5.386;2022-12-07T14:32:29;5.00;;;1.70;;
70800;SDS011;59616;52.170;5.386;2022-12-07T14:35:10;5.55;;;1.50;;
70800;SDS011;59616;52.170;5.386;2022-12-07T14:37:38;6.45;;;1.80;;
70800;SDS011;59616;52.170;5.386;2022-12-07T14:40:06;5.38;;;1.38;;
70800;SDS011;59616;52.170;5.386;2022-12-07T14:42:33;5.47;;;1.38;;
70800;SDS011;59616;52.170;5.386;2022-12-07T14:45:01;5.07;;;1.23;;
70800;SDS011;59616;52.170;5.386;2022-12-07T14:47:29;5.03;;;1.40;;
70800;SDS011;59616;52.170;5.386;2022-12-07T14:50:17;4.65;;;1.10;;
70800;SDS011;59616;52.170;5.386;2022-12-07T14:52:53;9.18;;;1.30;;
70800;SDS011;59616;52.170;5.386;2022-12-07T14:55:41;5.60;;;1.30;;
70800;SDS011;59616;52.170;5.386;2022-12-07T14:58:12;4.55;;;1.10;;
70800;SDS011;59616;52.170;5.386;2022-12-07T15:00:40;5.68;;;0.85;;
70800;SDS011;59616;52.170;5.386;2022-12-07T15:03:07;4.47;;;1.08;;
70800;SDS011;59616;52.170;5.386;2022-12-07T15:05:35;4.22;;;0.80;;
70800;SDS011;59616;52.170;5.386;2022-12-07T15:08:03;6.97;;;1.40;;
70800;SDS011;59616;52.170;5.386;2022-12-07T15:10:31;3.35;;;1.20;;
70800;SDS011;59616;52.170;5.386;2022-12-07T15:12:59;3.63;;;0.80;;
70800;SDS011;59616;52.170;5.386;2022-12-07T15:15:47;3.17;;;0.85;;
70800;SDS011;59616;52.170;5.386;2022-12-07T15:18:14;1.98;;;0.75;;
70800;SDS011;59616;52.170;5.386;2022-12-07T15:20:42;2.03;;;0.98;;
70800;SDS011;59616;52.170;5.386;2022-12-07T15:23:09;5.10;;;1.08;;
70800;SDS011;59616;52.170;5.386;2022-12-07T15:25:38;4.03;;;1.00;;
70800;SDS011;59616;52.170;5.386;2022-12-07T15:28:06;4.43;;;1.50;;
70800;SDS011;59616;52.170;5.386;2022-12-07T15:30:34;3.28;;;0.95;;
70800;SDS011;59616;52.170;5.386;2022-12-07T15:33:01;5.70;;;1.40;;
70800;SDS011;59616;52.170;5.386;2022-12-07T15:35:28;3.35;;;0.85;;
70800;SDS011;59616;52.170;5.386;2022-12-07T15:37:55;5.53;;;1.25;;
70800;SDS011;59616;52.170;5.386;2022-12-07T15:40:22;7.15;;;1.25;;
70800;SDS011;59616;52.170;5.386;2022-12-07T15:42:50;5.38;;;1.20;;
70800;SDS011;59616;52.170;5.386;2022-12-07T15:45:17;7.22;;;1.40;;
70800;SDS011;59616;52.170;5.386;2022-12-07T15:47:44;3.25;;;1.23;;
70800;SDS011;59616;52.170;5.386;2022-12-07T15:50:31;4.38;;;1.67;;
70800;SDS011;59616;52.170;5.386;2022-12-07T15:52:58;9.63;;;1.70;;
70800;SDS011;59616;52.170;5.386;2022-12-07T15:55:26;8.07;;;1.60;;
70800;SDS011;59616;52.170;5.386;2022-12-07T15:57:53;9.07;;;1.60;;
70800;SDS011;59616;52.170;5.386;2022-12-07T16:00:20;3.97;;;1.40;;
70800;SDS011;59616;52.170;5.386;2022-12-07T16:02:47;8.55;;;1.52;;
70800;SDS011;59616;52.170;5.386;2022-12-07T16:05:15;5.10;;;1.48;;
70800;SDS011;59616;52.170;5.386;2022-12-07T16:07:42;6.95;;;2.10;;
70800;SDS011;59616;52.170;5.386;2022-12-07T16:10:10;5.47;;;1.90;;
70800;SDS011;59616;52.170;5.386;2022-12-07T16:12:37;7.40;;;1.50;;
70800;SDS011;59616;52.170;5.386;2022-12-07T16:15:04;8.57;;;1.67;;
70800;SDS011;59616;52.170;5.386;2022-12-07T16:17:32;6.88;;;1.73;;
70800;SDS011;59616;52.170;5.386;2022-12-07T16:19:59;5.35;;;1.50;;
70800;SDS011;59616;52.170;5.386;2022-12-07T16:22:27;7.72;;;1.70;;
70800;SDS011;59616;52.170;5.386;2022-12-07T16:24:54;7.15;;;1.23;;
70800;SDS011;59616;52.170;5.386;2022-12-07T16:27:21;4.45;;;1.50;;
70800;SDS011;59616;52.170;5.386;2022-12-07T16:29:49;8.75;;;1.58;;
70800;SDS011;59616;52.170;5.386;2022-12-07T16:32:16;5.13;;;1.40;;
70800;SDS011;59616;52.170;5.386;2022-12-07T16:34:43;4.97;;;1.40;;
70800;SDS011;59616;52.170;5.386;2022-12-07T16:37:10;7.68;;;1.58;;
70800;SDS011;59616;52.170;5.386;2022-12-07T16:39:37;7.43;;;1.70;;
70800;SDS011;59616;52.170;5.386;2022-12-07T16:42:05;5.55;;;1.38;;
70800;SDS011;59616;52.170;5.386;2022-12-07T16:44:32;7.47;;;1.58;;
70800;SDS011;59616;52.170;5.386;2022-12-07T16:46:59;7.47;;;1.60;;
70800;SDS011;59616;52.170;5.386;2022-12-07T16:49:27;8.60;;;1.80;;
70800;SDS011;59616;52.170;5.386;2022-12-07T16:51:54;5.57;;;1.73;;
70800;SDS011;59616;52.170;5.386;2022-12-07T16:54:42;6.93;;;1.77;;
70800;SDS011;59616;52.170;5.386;2022-12-07T16:57:09;8.25;;;1.65;;
70800;SDS011;59616;52.170;5.386;2022-12-07T16:59:39;5.68;;;1.83;;
70800;SDS011;59616;52.170;5.386;2022-12-07T17:02:08;9.70;;;1.88;;
70800;SDS011;59616;52.170;5.386;2022-12-07T17:04:35;6.88;;;1.75;;
70800;SDS011;59616;52.170;5.386;2022-12-07T17:07:05;7.35;;;1.83;;
70800;SDS011;59616;52.170;5.386;2022-12-07T17:09:33;6.32;;;1.67;;
70800;SDS011;59616;52.170;5.386;2022-12-07T17:12:01;11.77;;;1.95;;
70800;SDS011;59616;52.170;5.386;2022-12-07T17:14:28;6.88;;;1.92;;
70800;SDS011;59616;52.170;5.386;2022-12-07T17:17:14;8.15;;;1.90;;
70800;SDS011;59616;52.170;5.386;2022-12-07T17:19:41;8.15;;;1.80;;